Time;durP1;ratioP1;P1;durP2;ratioP2;P2;SDS_P1;SDS_P2;PMS_P1;PMS_P2;Temp;Humidity;BMP_temperature;BMP_pressure;BME280_temperature;BME280_humidity;BME280_pressure;Samples;Min_cycle;Max_cycle;Signal;HPM_P1;HPM_P2
2022/02/14 00:00:27;;;;;;;53.80;22.10;;;;;;;-1.07;60.45;98706.83;439974;1250;98505;-40
2022/02/14 00:10:49;;;;;;;62.60;23.80;;;;;;;-1.20;60.76;98689.98;439970;1250;108843;-41
2022/02/14 00:20:53;;;;;;;61.30;23.50;;;;;;;-1.31;61.15;98677.05;439747;1250;97788;-41
2022/02/14 00:30:56;;;;;;;51.20;21.60;;;;;;;-1.40;61.48;98657.52;439827;1250;97814;-40
2022/02/14 00:51:04;;;;;;;53.30;21.60;;;;;;;-1.44;62.34;98657.89;439872;1251;96661;-41
2022/02/14 01:01:07;;;;;;;31.00;15.80;;;;;;;-1.37;62.84;98648.45;435667;1250;5394094;-40
2022/02/14 01:11:11;;;;;;;34.20;18.50;;;;;;;-1.26;63.07;98642.64;439728;1250;97720;-42
2022/02/14 01:21:15;;;;;;;32.20;17.00;;;;;;;-1.20;63.59;98636.33;439776;1250;111093;-42
2022/02/14 01:31:18;;;;;;;57.30;25.30;;;;;;;-1.24;63.76;98627.86;439994;1251;107740;-39
2022/02/14 01:41:22;;;;;;;48.60;24.30;;;;;;;-1.38;64.18;98616.58;439791;1250;98524;-40
2022/02/14 01:51:26;;;;;;;61.10;27.90;;;;;;;-1.55;64.42;98618.29;438597;1253;111024;-41
2022/02/14 02:01:30;;;;;;;66.80;29.90;;;;;;;-1.75;64.90;98612.84;440041;1250;97814;-40
2022/02/14 02:21:56;;;;;;;49.70;24.40;;;;;;;-1.96;65.51;98596.00;438196;1252;111495;-39
2022/02/14 02:32:00;;;;;;;62.60;27.60;;;;;;;-1.97;65.68;98573.63;438418;1252;108960;-40
2022/02/14 02:42:05;;;;;;;79.00;32.50;;;;;;;-2.06;65.98;98564.20;438640;1252;97865;-40
2022/02/14 02:52:11;;;;;;;95.70;35.90;;;;;;;-2.15;66.01;98560.98;438535;1252;110972;-41
2022/02/14 03:02:18;;;;;;;91.90;38.10;;;;;;;-2.26;66.10;98551.11;439340;1252;108182;-40
2022/02/14 03:12:22;;;;;;;98.80;39.50;;;;;;;-2.38;66.27;98548.39;439357;1252;108846;-42
2022/02/14 03:22:27;;;;;;;72.70;31.10;;;;;;;-2.45;66.49;98542.83;438621;1252;97837;-41
2022/02/14 03:32:30;;;;;;;52.00;26.80;;;;;;;-2.44;66.85;98536.70;439203;1252;108787;-41
2022/02/14 03:42:34;;;;;;;77.30;32.00;;;;;;;-2.34;67.18;98525.76;438962;1251;97894;-41
2022/02/14 03:52:38;;;;;;;86.40;38.90;;;;;;;-2.23;67.49;98520.76;438718;1252;110959;-40
2022/02/14 04:02:42;;;;;;;93.10;41.50;;;;;;;-2.25;67.96;98506.83;438486;1252;97505;-42
2022/02/14 04:12:46;;;;;;;69.80;32.10;;;;;;;-2.40;68.49;98507.98;438624;1252;97858;-42
2022/02/14 04:22:50;;;;;;;64.40;29.40;;;;;;;-2.46;68.66;98505.17;438785;1252;111043;-41
2022/02/14 04:32:56;;;;;;;77.00;33.10;;;;;;;-2.55;68.88;98503.05;438543;1252;108841;-41
2022/02/14 04:43:01;;;;;;;97.00;39.60;;;;;;;-2.63;69.11;98495.20;438637;1252;96669;-41
2022/02/14 04:53:04;;;;;;;101.50;42.30;;;;;;;-2.73;69.64;98485.89;438692;1252;96616;-40
2022/02/14 05:03:09;;;;;;;71.40;33.40;;;;;;;-2.75;70.27;98484.39;438539;1253;108211;-40
2022/02/14 05:13:13;;;;;;;63.70;32.60;;;;;;;-2.68;70.62;98487.77;438718;1252;97820;-43
2022/02/14 05:23:17;;;;;;;100.50;40.30;;;;;;;-2.70;70.60;98490.25;438608;1252;109275;-40
2022/02/14 05:33:21;;;;;;;110.10;44.30;;;;;;;-2.82;71.31;98483.59;438717;1253;96690;-41
2022/02/14 05:43:25;;;;;;;78.10;35.40;;;;;;;-2.84;71.70;98482.82;438311;1253;98038;-41
2022/02/14 05:53:28;;;;;;;66.80;34.00;;;;;;;-2.81;71.79;98479.80;439176;1252;109124;-40
2022/02/14 06:03:34;;;;;;;70.90;35.90;;;;;;;-2.78;72.37;98476.70;438963;1253;97816;-42
2022/02/14 06:13:38;;;;;;;105.80;47.10;;;;;;;-2.78;72.79;98475.64;439217;1251;109542;-40
2022/02/14 06:33:52;;;;;;;80.50;38.90;;;;;;;-2.69;73.40;98475.45;439292;1252;97849;-42
2022/02/14 06:55:48;;;;;;;111.20;48.60;;;;;;;-2.18;73.70;98471.12;418046;1314;639190;-44
2022/02/14 07:05:56;;;;;;;81.80;39.00;;;;;;;-1.76;74.03;98476.40;428893;1283;409149;-44
2022/02/14 07:16:04;;;;;;;70.60;34.60;;;;;;;-1.11;73.78;98479.02;429669;1283;106662;-40
2022/02/14 07:26:11;;;;;;;93.90;45.80;;;;;;;-0.45;73.77;98481.02;429641;1283;108830;-43
2022/02/14 07:36:25;;;;;;;92.50;44.10;;;;;;;0.57;73.26;98476.09;429604;1284;108782;-42
2022/02/14 07:46:33;;;;;;;87.50;40.80;;;;;;;1.94;72.72;98470.08;429738;1281;95456;-44
2022/02/14 07:56:39;;;;;;;49.90;27.70;;;;;;;3.39;71.39;98469.77;429525;1281;95658;-42
2022/02/14 08:06:47;;;;;;;69.60;34.90;;;;;;;4.61;69.90;98466.30;429806;1282;108372;-44
2022/02/14 08:16:54;;;;;;;67.50;31.50;;;;;;;5.53;69.03;98465.89;429706;1281;108883;-45
2022/02/14 08:27:00;;;;;;;55.10;27.80;;;;;;;6.16;67.56;98467.00;429647;1281;108651;-41
2022/02/14 08:37:08;;;;;;;135.20;69.00;;;;;;;6.43;66.50;98462.98;429738;1283;96196;-41
2022/02/14 08:47:15;;;;;;;40.70;21.20;;;;;;;5.91;65.74;98460.77;429655;1282;95816;-42
2022/02/14 08:57:22;;;;;;;41.00;21.40;;;;;;;5.41;65.10;98460.29;429766;1282;109532;-41
2022/02/14 09:07:30;;;;;;;52.40;24.50;;;;;;;5.40;65.21;98455.40;429745;1281;108974;-42
2022/02/14 09:17:37;;;;;;;49.80;25.90;;;;;;;5.51;65.03;98445.70;429711;1281;109026;-45
2022/02/14 09:27:44;;;;;;;40.90;22.60;;;;;;;5.63;64.64;98435.80;429629;1281;95508;-42
2022/02/14 09:37:51;;;;;;;39.10;21.20;;;;;;;5.58;64.26;98432.58;430286;1279;96413;-46
2022/02/14 09:48:01;;;;;;;28.60;17.50;;;;;;;5.70;64.13;98424.34;430675;1277;109694;-43
2022/02/14 09:58:08;;;;;;;30.60;18.40;;;;;;;5.96;63.90;98417.66;430777;1277;108945;-41
2022/02/14 10:08:21;;;;;;;31.40;17.80;;;;;;;6.09;63.07;98413.92;430590;1277;108819;-41
2022/02/14 10:18:28;;;;;;;28.80;16.50;;;;;;;6.17;62.76;98404.66;430916;1276;95625;-44
2022/02/14 10:28:56;;;;;;;31.70;17.50;;;;;;;6.27;62.34;98396.63;430590;1277;95713;-43
2022/02/14 10:39:02;;;;;;;31.00;16.90;;;;;;;6.38;62.12;98388.91;430576;1277;109661;-42
2022/02/14 10:49:11;;;;;;;24.60;15.60;;;;;;;6.57;61.67;98378.32;430631;1277;108833;-43
2022/02/14 10:59:34;;;;;;;28.00;15.20;;;;;;;6.78;61.65;98371.09;430810;1277;108869;-45
2022/02/14 11:09:44;;;;;;;30.10;15.60;;;;;;;6.95;60.87;98356.79;430792;1277;96646;-45
2022/02/14 11:19:53;;;;;;;27.60;15.80;;;;;;;7.12;60.49;98348.38;430817;1277;96156;-41
2022/02/14 11:30:06;;;;;;;33.00;16.40;;;;;;;7.20;59.26;98344.73;430898;1274;109748;-42
2022/02/14 11:40:35;;;;;;;29.60;16.30;;;;;;;7.21;59.12;98340.17;432305;1274;108814;-44
2022/02/14 11:50:43;;;;;;;29.40;16.50;;;;;;;7.21;58.64;98325.45;432292;1273;108802;-45
2022/02/14 12:01:05;;;;;;;27.70;15.50;;;;;;;7.25;58.23;98314.40;431011;1274;95431;-45
2022/02/14 12:11:12;;;;;;;31.40;16.80;;;;;;;7.34;58.51;98300.57;431898;1272;96160;-44
2022/02/14 12:21:21;;;;;;;30.20;15.20;;;;;;;7.47;58.95;98290.79;432501;1273;109770;-43
2022/02/14 12:31:45;;;;;;;29.00;15.20;;;;;;;7.54;58.67;98278.52;432550;1274;108870;-45
2022/02/14 12:41:53;;;;;;;21.50;13.40;;;;;;;7.54;58.53;98267.79;432469;1273;109258;-44
2022/02/14 13:02:18;;;;;;;17.80;10.20;;;;;;;7.61;57.14;98237.45;432543;1273;96213;-45
2022/02/14 13:12:24;;;;;;;22.30;11.40;;;;;;;7.71;53.82;98227.81;432511;1273;110882;-43
2022/02/14 13:32:45;;;;;;;18.40;11.30;;;;;;;7.67;53.56;98209.77;432558;1273;108816;-41
2022/02/14 13:42:52;;;;;;;15.40;10.30;;;;;;;7.74;52.63;98207.16;432463;1272;95296;-44
2022/02/14 13:52:59;;;;;;;22.30;11.70;;;;;;;7.70;51.01;98204.15;432414;1273;96042;-43
2022/02/14 14:03:08;;;;;;;19.30;10.10;;;;;;;7.60;51.85;98194.73;432519;1273;110297;-46
2022/02/14 14:23:22;;;;;;;18.70;9.30;;;;;;;7.40;51.16;98185.95;432472;1273;108868;-46
2022/02/14 14:33:29;;;;;;;17.30;9.30;;;;;;;7.29;51.03;98177.90;432328;1273;95343;-44
2022/02/14 14:43:36;;;;;;;20.90;10.10;;;;;;;7.17;50.76;98169.26;432365;1272;95579;-44
2022/02/14 15:03:50;;;;;;;15.60;9.00;;;;;;;6.89;50.87;98164.81;432477;1273;108906;-41
2022/02/14 15:13:57;;;;;;;22.10;12.10;;;;;;;6.70;51.15;98158.71;432594;1272;109157;-45
2022/02/14 15:24:03;;;;;;;15.50;9.10;;;;;;;6.53;50.73;98151.80;432551;1272;96133;-45
2022/02/14 15:34:11;;;;;;;21.80;12.20;;;;;;;6.35;51.39;98153.04;432416;1273;109719;-44
2022/02/14 15:44:19;;;;;;;25.90;13.50;;;;;;;6.12;51.69;98147.27;432386;1272;108941;-41
2022/02/14 15:54:28;;;;;;;32.60;14.00;;;;;;;5.89;52.12;98145.77;433421;1267;108958;-45
2022/02/14 16:04:34;;;;;;;22.90;13.00;;;;;;;5.62;52.45;98143.73;433500;1268;96443;-43
2022/02/14 16:14:46;;;;;;;26.80;14.60;;;;;;;5.38;52.59;98145.25;433310;1269;96153;-42
2022/02/14 16:24:53;;;;;;;26.60;13.80;;;;;;;5.18;52.59;98141.50;433405;1268;107681;-41
2022/02/14 16:35:01;;;;;;;37.10;16.80;;;;;;;5.08;52.67;98139.52;433475;1268;108880;-41
2022/02/14 16:45:06;;;;;;;40.00;19.10;;;;;;;4.91;52.92;98139.95;433437;1268;109298;-43
2022/02/14 16:55:17;;;;;;;33.20;16.90;;;;;;;4.73;53.35;98136.94;433465;1268;95253;-40
2022/02/14 17:05:25;;;;;;;42.50;19.80;;;;;;;4.60;53.77;98135.22;433210;1270;95489;-40
2022/02/14 17:15:32;;;;;;;44.40;21.00;;;;;;;4.48;54.20;98134.27;433509;1268;110024;-43
2022/02/14 17:25:39;;;;;;;39.70;17.10;;;;;;;4.36;54.72;98142.71;433522;1268;108790;-41
2022/02/14 17:35:48;;;;;;;38.30;17.00;;;;;;;4.31;55.01;98144.10;433411;1268;108548;-41
2022/02/14 17:45:55;;;;;;;43.60;18.80;;;;;;;4.15;55.43;98141.23;433415;1268;96490;-41
2022/02/14 17:56:03;;;;;;;55.20;24.10;;;;;;;3.94;55.85;98143.08;433412;1269;95545;-41
2022/02/14 18:06:10;;;;;;;46.10;22.40;;;;;;;3.80;56.20;98138.67;433124;1270;110197;-41
2022/02/14 18:16:18;;;;;;;75.40;29.00;;;;;;;3.65;56.75;98150.55;433406;1268;109276;-41
2022/02/14 18:36:35;;;;;;;71.10;28.40;;;;;;;3.31;57.53;98167.60;433031;1270;96335;-40
2022/02/14 18:46:42;;;;;;;88.90;38.40;;;;;;;3.10;57.93;98169.10;433451;1268;95751;-42
2022/02/14 18:56:49;;;;;;;106.70;45.30;;;;;;;2.89;58.31;98178.83;433147;1270;109497;-41
2022/02/14 19:06:57;;;;;;;96.70;43.90;;;;;;;2.66;58.63;98173.73;430895;1268;3485772;-41
2022/02/14 19:17:04;;;;;;;68.20;31.20;;;;;;;2.57;59.15;98173.54;433532;1268;95343;-41
2022/02/14 19:27:11;;;;;;;75.00;34.10;;;;;;;2.51;59.54;98167.04;433308;1269;95702;-41
2022/02/14 19:37:23;;;;;;;81.70;35.70;;;;;;;2.39;60.05;98169.77;433523;1268;109125;-43
2022/02/14 19:47:30;;;;;;;84.10;40.00;;;;;;;2.29;60.30;98164.41;433015;1268;109750;-44
2022/02/14 19:57:38;;;;;;;107.40;42.60;;;;;;;2.11;60.70;98158.91;433222;1268;109298;-42
2022/02/14 20:07:44;;;;;;;104.70;44.20;;;;;;;1.93;61.01;98158.04;433475;1268;96694;-41
2022/02/14 20:17:51;;;;;;;93.00;41.80;;;;;;;1.77;61.48;98156.86;433420;1268;95773;-40
2022/02/14 20:27:59;;;;;;;59.20;28.80;;;;;;;1.69;61.73;98159.84;433482;1268;109759;-41
2022/02/14 20:38:06;;;;;;;60.30;29.40;;;;;;;1.63;62.23;98159.47;433311;1270;108974;-42
2022/02/14 20:48:15;;;;;;;103.20;47.50;;;;;;;1.51;62.69;98153.06;433405;1268;96139;-41
2022/02/14 20:58:23;;;;;;;112.70;48.70;;;;;;;1.36;63.13;98150.73;433356;1268;95261;-41
2022/02/14 21:08:31;;;;;;;103.60;48.20;;;;;;;1.18;63.57;98160.77;433378;1268;109783;-41
2022/02/14 21:18:38;;;;;;;127.40;51.20;;;;;;;1.01;64.06;98159.70;433580;1268;108849;-43
2022/02/14 21:28:45;;;;;;;93.80;41.10;;;;;;;1.00;64.30;98154.67;433482;1268;108915;-40
2022/02/14 21:38:52;;;;;;;73.10;37.10;;;;;;;1.07;64.71;98152.23;433495;1268;95687;-41
2022/02/14 21:49:00;;;;;;;105.20;46.70;;;;;;;1.08;64.90;98146.60;433502;1270;109083;-40
2022/02/14 21:59:08;;;;;;;96.50;46.30;;;;;;;1.01;65.27;98142.23;433377;1268;109027;-41
2022/02/14 22:09:15;;;;;;;127.20;53.10;;;;;;;0.89;65.45;98129.48;433507;1268;95320;-41
2022/02/14 22:19:23;;;;;;;116.60;52.70;;;;;;;0.77;66.04;98122.45;433371;1268;95696;-43
2022/02/14 22:39:36;;;;;;;109.30;52.00;;;;;;;0.46;66.22;98118.25;433274;1268;109268;-40
2022/02/14 22:49:44;;;;;;;100.40;46.60;;;;;;;0.42;66.37;98116.82;433344;1268;96189;-42
2022/02/14 22:59:51;;;;;;;100.70;46.60;;;;;;;0.32;66.64;98113.25;433520;1268;109708;-41
2022/02/14 23:20:24;;;;;;;151.00;59.30;;;;;;;-0.05;67.45;98104.33;433441;1268;96136;-44
2022/02/14 23:30:28;;;;;;;135.70;57.00;;;;;;;-0.22;67.81;98093.48;433433;1268;95978;-42
2022/02/14 23:40:36;;;;;;;112.00;48.40;;;;;;;-0.33;68.29;98084.23;433472;1268;96542;-40
2022/02/14 23:50:43;;;;;;;96.90;42.20;;;;;;;-0.33;68.22;98080.88;433359;1268;108806;-43
